Time;durP1;ratioP1;P1;durP2;ratioP2;P2;SDS_P1;SDS_P2;PMS_P1;PMS_P2;Temp;Humidity;BMP_temperature;BMP_pressure;BME280_temperature;BME280_humidity;BME280_pressure;Samples;Min_cycle;Max_cycle;Signal;HPM_P1;HPM_P2
2023/10/05 00:00:48;;;;;;;15.57;15.07;;;10.80;99.90;;;;;;5131867;27;20661;-68
2023/10/05 00:03:16;;;;;;;15.90;15.33;;;10.80;99.90;;;;;;5131679;27;20233;-68
2023/10/05 00:05:44;;;;;;;16.23;15.63;;;10.80;99.90;;;;;;5131867;27;20224;-68
2023/10/05 00:08:11;;;;;;;16.77;16.17;;;10.80;99.90;;;;;;5129578;28;20732;-70
2023/10/05 00:10:37;;;;;;;17.60;16.93;;;10.70;99.90;;;;;;5132127;28;20209;-69
2023/10/05 00:13:07;;;;;;;15.93;15.37;;;10.70;99.90;;;;;;5132024;28;20312;-70
2023/10/05 00:15:36;;;;;;;17.77;17.17;;;10.70;99.90;;;;;;5132121;28;20293;-68
2023/10/05 00:18:06;;;;;;;16.87;16.27;;;10.70;99.90;;;;;;5131243;28;20724;-69
2023/10/05 00:20:38;;;;;;;16.40;15.80;;;10.70;99.90;;;;;;5135859;27;20262;-69
2023/10/05 00:23:08;;;;;;;15.37;14.87;;;10.70;99.90;;;;;;5136070;27;20225;-69
2023/10/05 00:25:35;;;;;;;15.87;15.30;;;10.80;99.90;;;;;;5136140;27;20205;-69
2023/10/05 00:28:04;;;;;;;15.17;14.67;;;10.80;99.90;;;;;;5135615;27;20603;-67
2023/10/05 00:30:31;;;;;;;16.33;15.73;;;10.80;99.90;;;;;;5135865;27;20589;-70
2023/10/05 00:32:59;;;;;;;16.33;15.73;;;10.80;99.90;;;;;;5128832;27;20278;-69
2023/10/05 00:35:27;;;;;;;20.07;19.37;;;10.90;99.90;;;;;;5135487;27;20262;-69
2023/10/05 00:37:57;;;;;;;16.20;15.60;;;10.90;99.90;;;;;;5128653;27;20213;-68
2023/10/05 00:40:34;;;;;;;16.30;15.70;;;10.90;99.90;;;;;;5128962;27;20236;-68
2023/10/05 00:43:08;;;;;;;16.30;15.70;;;10.90;99.90;;;;;;5134016;27;20253;-69
2023/10/05 00:45:38;;;;;;;17.47;16.87;;;10.90;99.90;;;;;;5135352;27;20219;-69
2023/10/05 00:48:13;;;;;;;15.10;14.60;;;10.90;99.90;;;;;;5135424;27;20216;-69
2023/10/05 00:50:40;;;;;;;17.57;16.97;;;10.80;99.90;;;;;;5130270;27;20219;-69
2023/10/05 00:53:10;;;;;;;15.53;15.03;;;10.80;99.90;;;;;;5134996;27;20795;-68
2023/10/05 00:55:39;;;;;;;16.40;15.80;;;10.90;99.90;;;;;;5118415;27;20587;-69
2023/10/05 00:58:14;;;;;;;15.55;14.95;;;10.80;99.90;;;;;;5126513;27;20213;-69
2023/10/05 01:00:50;;;;;;;17.13;16.53;;;10.80;99.90;;;;;;5130305;27;20206;-69
2023/10/05 01:03:22;;;;;;;15.20;14.70;;;10.90;99.90;;;;;;5134936;27;20285;-68
2023/10/05 01:06:01;;;;;;;18.48;17.77;;;10.90;99.90;;;;;;5135218;27;20212;-68
2023/10/05 01:08:32;;;;;;;18.17;17.53;;;10.80;99.90;;;;;;5134684;27;20324;-68
2023/10/05 01:11:01;;;;;;;17.98;17.38;;;10.80;99.90;;;;;;5135009;27;20209;-68
2023/10/05 01:13:31;;;;;;;16.33;15.73;;;10.80;99.90;;;;;;5134978;27;20225;-69
2023/10/05 01:15:59;;;;;;;16.17;15.57;;;10.80;99.90;;;;;;5128220;27;20222;-69
2023/10/05 01:18:27;;;;;;;16.57;15.97;;;10.80;99.90;;;;;;5128164;27;20213;-69
2023/10/05 01:20:57;;;;;;;19.10;18.40;;;10.70;99.90;;;;;;5135004;27;20584;-68
2023/10/05 01:23:37;;;;;;;14.53;14.03;;;10.70;99.90;;;;;;5135084;27;20263;-69
2023/10/05 01:26:04;;;;;;;17.27;16.67;;;10.70;99.90;;;;;;5133787;27;20284;-69
2023/10/05 01:28:32;;;;;;;18.47;17.83;;;10.70;99.90;;;;;;5137054;27;20237;-69
2023/10/05 01:31:18;;;;;;;15.70;15.10;;;10.70;99.90;;;;;;5093812;28;20202;-69
2023/10/05 01:33:46;;;;;;;17.30;16.70;;;10.60;99.90;;;;;;5095152;28;20226;-68
2023/10/05 01:36:15;;;;;;;15.03;14.53;;;10.50;99.90;;;;;;5099504;28;20228;-70
2023/10/05 01:38:45;;;;;;;15.40;14.90;;;10.50;99.90;;;;;;5099236;28;20578;-68
2023/10/05 01:41:16;;;;;;;15.07;14.57;;;10.50;99.90;;;;;;5093700;28;20211;-69
2023/10/05 01:43:43;;;;;;;15.70;15.10;;;10.50;99.90;;;;;;5091889;28;20234;-69
2023/10/05 01:46:10;;;;;;;15.55;15.02;;;10.40;99.90;;;;;;5091595;28;20215;-70
2023/10/05 01:48:37;;;;;;;16.77;16.17;;;10.50;99.90;;;;;;5094674;28;20226;-69
2023/10/05 01:51:09;;;;;;;15.53;14.93;;;10.50;99.90;;;;;;5113393;28;20205;-69
2023/10/05 01:53:36;;;;;;;16.77;16.17;;;10.50;99.90;;;;;;5115408;28;20253;-69
2023/10/05 01:56:14;;;;;;;17.10;16.50;;;10.50;99.90;;;;;;5113058;28;20212;-70
2023/10/05 01:58:43;;;;;;;15.07;14.57;;;10.60;99.90;;;;;;5108523;28;20213;-69
2023/10/05 02:01:12;;;;;;;14.77;14.27;;;10.50;99.90;;;;;;5113439;28;20209;-69
2023/10/05 02:03:41;;;;;;;15.67;15.17;;;10.50;99.90;;;;;;5113325;28;20230;-68
2023/10/05 02:06:11;;;;;;;14.73;14.23;;;10.50;99.90;;;;;;5113418;28;20210;-68
2023/10/05 02:08:41;;;;;;;14.93;14.43;;;10.50;99.90;;;;;;5111360;28;20275;-68
2023/10/05 02:11:09;;;;;;;15.47;14.97;;;10.50;99.90;;;;;;5113086;28;20221;-69
2023/10/05 02:13:37;;;;;;;16.60;16.00;;;10.60;99.90;;;;;;5114819;28;20249;-69
2023/10/05 02:16:06;;;;;;;17.15;16.48;;;10.60;99.90;;;;;;5115787;28;20206;-68
2023/10/05 02:18:34;;;;;;;14.97;14.47;;;10.50;99.90;;;;;;5115294;28;20213;-69
2023/10/05 02:21:06;;;;;;;16.10;15.57;;;10.50;99.90;;;;;;5114706;28;20209;-69
2023/10/05 02:23:39;;;;;;;14.60;14.10;;;10.50;99.90;;;;;;5113368;28;20704;-69
2023/10/05 02:26:10;;;;;;;14.05;13.55;;;10.50;99.90;;;;;;5113101;28;20210;-69
2023/10/05 02:28:41;;;;;;;15.20;14.60;;;10.50;99.90;;;;;;5112726;28;20313;-68
2023/10/05 02:31:12;;;;;;;15.43;14.93;;;10.50;99.90;;;;;;5112951;28;20590;-70
2023/10/05 02:33:43;;;;;;;15.97;15.37;;;10.50;99.90;;;;;;5112640;28;20237;-69
2023/10/05 02:36:11;;;;;;;15.33;14.83;;;10.50;99.90;;;;;;5112904;28;20237;-68
2023/10/05 02:38:39;;;;;;;14.73;14.23;;;10.50;99.90;;;;;;5112855;28;20212;-68
2023/10/05 02:41:08;;;;;;;15.07;14.57;;;10.50;99.90;;;;;;5105977;28;20210;-69
2023/10/05 02:43:39;;;;;;;15.80;15.20;;;10.60;99.90;;;;;;5111607;28;20261;-69
2023/10/05 02:46:11;;;;;;;16.80;16.10;;;10.60;99.90;;;;;;5112546;28;20209;-69
2023/10/05 02:48:41;;;;;;;16.27;15.57;;;10.50;99.90;;;;;;5112422;28;20217;-69
2023/10/05 02:51:10;;;;;;;15.65;15.05;;;10.60;99.90;;;;;;5112371;28;20209;-69
2023/10/05 02:53:41;;;;;;;16.40;15.80;;;10.50;99.90;;;;;;5112442;28;20221;-69
2023/10/05 02:56:27;;;;;;;16.10;15.53;;;10.50;99.90;;;;;;5112228;28;20213;-68
2023/10/05 02:58:55;;;;;;;16.33;15.73;;;10.60;99.90;;;;;;5112427;28;20210;-69
2023/10/05 03:01:23;;;;;;;15.07;14.57;;;10.60;99.90;;;;;;5112296;28;20685;-69
2023/10/05 03:03:51;;;;;;;17.20;16.60;;;10.60;99.90;;;;;;5112165;28;20312;-69
2023/10/05 03:06:22;;;;;;;14.20;13.70;;;10.60;99.90;;;;;;5112007;28;20293;-69
2023/10/05 03:08:49;;;;;;;14.60;14.00;;;10.70;99.90;;;;;;5111745;28;20212;-69
2023/10/05 03:11:18;;;;;;;15.38;14.77;;;10.60;99.90;;;;;;5111690;28;20210;-69
2023/10/05 03:13:45;;;;;;;18.33;17.63;;;10.70;99.90;;;;;;5112147;28;20377;-69
2023/10/05 03:16:12;;;;;;;14.77;14.17;;;10.70;99.90;;;;;;5111956;28;20208;-69
2023/10/05 03:18:42;;;;;;;15.40;14.80;;;10.80;99.90;;;;;;5111797;28;20262;-69
2023/10/05 03:21:12;;;;;;;15.88;15.27;;;10.80;99.90;;;;;;5111788;28;20213;-68
2023/10/05 03:23:40;;;;;;;15.30;14.80;;;10.80;99.90;;;;;;5111862;28;20275;-69
2023/10/05 03:26:09;;;;;;;15.67;15.17;;;10.80;99.90;;;;;;5111708;28;20212;-68
2023/10/05 03:28:36;;;;;;;15.75;15.25;;;10.80;99.90;;;;;;5111820;28;20213;-69
2023/10/05 03:31:08;;;;;;;15.87;15.30;;;10.90;99.90;;;;;;5111890;28;20611;-68
2023/10/05 03:33:35;;;;;;;16.67;16.07;;;11.00;99.90;;;;;;5111944;28;20700;-68
2023/10/05 03:36:13;;;;;;;17.80;17.20;;;11.00;99.90;;;;;;5111526;28;20641;-69
2023/10/05 03:38:40;;;;;;;17.13;16.52;;;11.00;99.90;;;;;;5119897;27;20216;-68
2023/10/05 03:41:15;;;;;;;17.23;16.33;;;11.00;99.90;;;;;;5128824;27;20292;-68
2023/10/05 03:43:43;;;;;;;17.10;16.50;;;11.00;99.90;;;;;;5131952;27;20228;-68
2023/10/05 03:46:10;;;;;;;17.02;16.42;;;11.00;99.90;;;;;;5131820;27;20296;-69
2023/10/05 03:48:38;;;;;;;16.83;16.23;;;11.00;99.90;;;;;;5131842;27;20988;-69
2023/10/05 03:51:15;;;;;;;17.00;16.40;;;11.00;99.90;;;;;;5130614;27;20224;-69
2023/10/05 03:53:48;;;;;;;18.20;17.60;;;11.00;99.90;;;;;;5121096;27;20316;-69
2023/10/05 03:56:17;;;;;;;18.97;18.33;;;11.00;99.90;;;;;;5131857;27;20213;-68
2023/10/05 03:58:45;;;;;;;16.42;15.82;;;11.00;99.90;;;;;;5130071;27;20205;-69
2023/10/05 04:01:12;;;;;;;18.23;17.63;;;11.00;99.90;;;;;;5131710;27;20217;-69
2023/10/05 04:03:39;;;;;;;17.27;16.67;;;10.90;99.90;;;;;;5131749;27;20237;-69
2023/10/05 04:06:17;;;;;;;16.35;15.80;;;10.90;99.90;;;;;;5131993;27;20209;-69
2023/10/05 04:08:47;;;;;;;16.80;16.20;;;10.80;99.90;;;;;;5130277;28;20205;-68
2023/10/05 04:11:16;;;;;;;17.40;16.80;;;10.80;99.90;;;;;;5130578;28;20229;-68
2023/10/05 04:13:43;;;;;;;17.97;17.37;;;10.70;99.90;;;;;;5131980;28;20290;-68
2023/10/05 04:16:11;;;;;;;16.43;15.83;;;10.70;99.90;;;;;;5132258;28;20211;-69
2023/10/05 04:18:38;;;;;;;16.33;15.75;;;10.70;99.90;;;;;;5131161;28;20247;-69
2023/10/05 04:21:06;;;;;;;15.75;15.23;;;10.60;99.90;;;;;;5129479;28;20208;-69
2023/10/05 04:23:33;;;;;;;16.40;15.75;;;10.70;99.90;;;;;;5120802;28;20237;-69
2023/10/05 04:26:01;;;;;;;16.30;15.70;;;10.70;99.90;;;;;;5124480;28;20669;-69
2023/10/05 04:28:34;;;;;;;15.63;15.13;;;10.70;99.90;;;;;;5130822;28;20783;-69
2023/10/05 04:31:06;;;;;;;16.30;15.70;;;10.80;99.90;;;;;;5131155;28;20286;-69
2023/10/05 04:33:33;;;;;;;16.27;15.70;;;10.80;99.90;;;;;;5127381;28;20823;-69
2023/10/05 04:36:03;;;;;;;15.20;14.70;;;10.90;99.90;;;;;;5129332;28;20205;-69
2023/10/05 04:38:29;;;;;;;15.83;15.23;;;10.90;99.90;;;;;;5137982;28;20213;-68
2023/10/05 04:40:59;;;;;;;17.07;16.47;;;11.00;99.90;;;;;;5127243;28;20301;-69
2023/10/05 04:43:27;;;;;;;16.60;16.00;;;11.00;99.90;;;;;;5126720;28;20229;-70
2023/10/05 04:45:54;;;;;;;17.87;17.27;;;11.00;99.90;;;;;;5132810;28;20212;-69
2023/10/05 04:48:23;;;;;;;16.83;16.23;;;11.00;99.90;;;;;;5133269;28;20201;-69
2023/10/05 04:50:51;;;;;;;16.20;15.60;;;11.00;99.90;;;;;;5124677;28;20240;-68
2023/10/05 04:53:20;;;;;;;16.70;16.10;;;11.10;99.90;;;;;;5130520;28;20282;-68
2023/10/05 04:55:47;;;;;;;16.60;16.00;;;11.00;99.90;;;;;;5131228;28;20209;-69
2023/10/05 04:58:22;;;;;;;17.17;16.57;;;11.00;99.90;;;;;;5129089;28;20255;-68
2023/10/05 05:01:04;;;;;;;17.00;16.40;;;11.10;99.90;;;;;;5131334;28;20259;-69
2023/10/05 05:03:48;;;;;;;17.70;17.10;;;11.10;99.90;;;;;;5130774;28;20232;-69
2023/10/05 05:06:15;;;;;;;17.63;17.03;;;11.10;99.90;;;;;;5136646;27;20644;-69
2023/10/05 05:08:43;;;;;;;17.37;16.73;;;11.10;99.90;;;;;;5134993;27;20209;-68
2023/10/05 05:11:18;;;;;;;17.53;16.83;;;11.10;99.90;;;;;;5138063;27;20712;-69
2023/10/05 05:13:46;;;;;;;19.30;18.60;;;11.10;99.90;;;;;;5136778;27;20254;-70
2023/10/05 05:16:15;;;;;;;20.17;19.45;;;11.00;99.90;;;;;;5135988;27;20577;-69
2023/10/05 05:18:42;;;;;;;17.10;16.50;;;11.00;99.90;;;;;;5133299;27;20206;-69
2023/10/05 05:21:11;;;;;;;16.27;15.67;;;10.90;99.90;;;;;;5134972;27;20354;-69
2023/10/05 05:23:41;;;;;;;18.33;17.73;;;10.80;99.90;;;;;;5134916;27;20264;-69
2023/10/05 05:26:11;;;;;;;15.73;15.23;;;10.80;99.90;;;;;;5135415;27;20235;-69
2023/10/05 05:28:38;;;;;;;16.47;15.90;;;10.70;99.90;;;;;;5134992;27;20217;-70
2023/10/05 05:31:13;;;;;;;15.83;15.33;;;10.70;99.90;;;;;;5133140;27;20595;-69
2023/10/05 05:33:44;;;;;;;15.23;14.73;;;10.60;99.90;;;;;;5134458;27;20297;-69
2023/10/05 05:36:12;;;;;;;14.97;14.47;;;10.50;99.90;;;;;;5134315;27;20220;-68
2023/10/05 05:38:40;;;;;;;15.97;15.37;;;10.60;99.90;;;;;;5121187;27;20549;-68
2023/10/05 05:41:15;;;;;;;14.80;14.30;;;10.60;99.90;;;;;;5108338;27;20237;-68
2023/10/05 05:43:43;;;;;;;18.97;18.27;;;10.60;99.90;;;;;;5097411;28;20229;-69
2023/10/05 05:46:12;;;;;;;14.93;14.40;;;10.70;99.90;;;;;;5107015;27;20206;-68
2023/10/05 05:48:43;;;;;;;15.60;15.07;;;10.60;99.90;;;;;;5115055;27;20725;-68
2023/10/05 05:51:14;;;;;;;14.60;14.10;;;10.70;99.90;;;;;;5107187;27;20226;-69
2023/10/05 05:53:43;;;;;;;14.83;14.33;;;10.80;99.90;;;;;;5096858;28;20230;-69
2023/10/05 05:56:16;;;;;;;16.90;16.30;;;10.90;99.90;;;;;;5120296;27;20214;-69
2023/10/05 05:58:47;;;;;;;15.67;15.17;;;10.90;99.90;;;;;;5096438;28;20672;-68
2023/10/05 06:01:19;;;;;;;15.15;14.65;;;10.90;99.90;;;;;;5098741;28;20256;-67
2023/10/05 06:03:48;;;;;;;16.60;16.00;;;11.00;99.90;;;;;;5104241;27;20222;-69
2023/10/05 06:06:16;;;;;;;16.73;16.13;;;11.10;99.90;;;;;;5120185;27;20249;-69
2023/10/05 06:08:44;;;;;;;16.33;15.70;;;11.10;99.90;;;;;;5120328;27;20232;-69
2023/10/05 06:11:12;;;;;;;16.57;15.97;;;11.20;99.90;;;;;;5108219;28;20244;-69
2023/10/05 06:13:40;;;;;;;17.07;16.47;;;11.20;99.90;;;;;;5107267;28;20249;-68
2023/10/05 06:16:09;;;;;;;17.47;16.77;;;11.20;99.90;;;;;;5106036;28;20207;-69
2023/10/05 06:18:36;;;;;;;17.93;17.33;;;11.20;99.90;;;;;;5105328;28;20206;-68
2023/10/05 06:21:05;;;;;;;16.87;16.27;;;11.20;99.90;;;;;;5105811;27;20263;-68
2023/10/05 06:23:33;;;;;;;17.10;16.50;;;11.30;99.90;;;;;;5105435;28;20229;-68
2023/10/05 06:26:00;;;;;;;17.53;16.93;;;11.30;99.90;;;;;;5109731;28;20209;-68
2023/10/05 06:28:27;;;;;;;19.23;18.57;;;11.40;99.90;;;;;;5121112;27;20292;-69
2023/10/05 06:30:56;;;;;;;17.50;16.90;;;11.40;99.90;;;;;;5118492;27;20218;-68
2023/10/05 06:33:25;;;;;;;16.33;15.73;;;11.40;99.90;;;;;;5102788;28;20241;-68
2023/10/05 06:35:52;;;;;;;17.13;16.53;;;11.50;99.90;;;;;;5096382;28;20226;-68
2023/10/05 06:38:20;;;;;;;16.43;15.83;;;11.50;99.90;;;;;;5119498;27;20665;-69
2023/10/05 06:40:47;;;;;;;16.47;15.87;;;11.60;99.90;;;;;;5109507;28;20688;-68
2023/10/05 06:43:15;;;;;;;16.40;15.80;;;11.60;99.90;;;;;;5111608;27;20247;-68
2023/10/05 06:45:45;;;;;;;16.20;15.63;;;11.60;99.90;;;;;;5110509;27;20206;-69
2023/10/05 06:48:11;;;;;;;16.37;15.77;;;11.60;99.90;;;;;;5113001;27;20212;-67
2023/10/05 06:50:38;;;;;;;15.73;15.13;;;11.70;99.90;;;;;;5109672;28;20236;-67
2023/10/05 06:53:07;;;;;;;16.30;15.70;;;11.80;99.90;;;;;;5107353;27;20734;-68
2023/10/05 06:55:35;;;;;;;16.03;15.43;;;11.80;99.90;;;;;;5109277;28;20210;-69
2023/10/05 06:58:03;;;;;;;16.70;16.10;;;11.80;99.90;;;;;;5129844;27;20689;-68
2023/10/05 07:00:30;;;;;;;17.20;16.57;;;11.90;99.90;;;;;;5132755;27;20205;-69
2023/10/05 07:02:58;;;;;;;16.13;15.57;;;11.90;99.90;;;;;;5113491;27;20240;-70
2023/10/05 07:05:27;;;;;;;17.20;16.60;;;11.90;99.90;;;;;;5114290;27;20584;-68
2023/10/05 07:07:54;;;;;;;16.17;15.57;;;11.90;99.90;;;;;;5111789;27;20957;-69
2023/10/05 07:10:22;;;;;;;17.88;17.27;;;11.90;99.90;;;;;;5101767;28;20232;-69
2023/10/05 07:12:50;;;;;;;17.83;17.23;;;12.00;99.90;;;;;;5094897;28;20359;-68
2023/10/05 07:15:18;;;;;;;17.23;16.63;;;12.00;99.90;;;;;;5096707;28;20201;-68
2023/10/05 07:17:45;;;;;;;18.23;17.63;;;12.10;99.90;;;;;;5115195;27;20606;-70
2023/10/05 07:20:12;;;;;;;18.42;17.77;;;12.20;99.90;;;;;;5105727;27;20214;-69
2023/10/05 07:22:40;;;;;;;18.77;18.10;;;12.30;99.90;;;;;;5103797;27;20330;-69
2023/10/05 07:25:08;;;;;;;20.53;19.83;;;12.30;99.90;;;;;;5122355;27;20288;-69
2023/10/05 07:27:35;;;;;;;19.90;19.20;;;12.40;99.90;;;;;;5109245;28;20205;-68
2023/10/05 07:30:05;;;;;;;19.40;18.70;;;12.50;99.90;;;;;;5108483;28;20265;-69
2023/10/05 07:32:32;;;;;;;19.17;18.47;;;12.50;99.90;;;;;;5104576;28;20217;-68
2023/10/05 07:34:59;;;;;;;19.27;18.58;;;12.60;99.90;;;;;;5110085;28;20216;-69
2023/10/05 07:37:27;;;;;;;18.35;17.75;;;12.60;99.90;;;;;;5102629;28;20213;-68
2023/10/05 07:39:55;;;;;;;21.90;21.10;;;12.70;99.90;;;;;;5102769;27;20213;-69
2023/10/05 07:42:22;;;;;;;20.53;19.83;;;12.80;99.90;;;;;;5108274;28;20246;-69
2023/10/05 07:44:49;;;;;;;20.37;19.67;;;12.80;99.90;;;;;;5119770;27;20284;-69
2023/10/05 07:47:17;;;;;;;20.47;19.77;;;12.90;99.90;;;;;;5109621;27;20215;-68
2023/10/05 07:49:45;;;;;;;21.70;20.90;;;12.80;99.90;;;;;;5109166;28;20217;-69
2023/10/05 07:52:14;;;;;;;20.90;20.20;;;13.00;99.90;;;;;;5114901;27;20239;-69
2023/10/05 07:54:41;;;;;;;20.83;20.13;;;13.10;99.90;;;;;;5108578;27;20259;-68
2023/10/05 07:57:09;;;;;;;20.85;20.15;;;13.10;99.90;;;;;;5097305;27;20287;-69
2023/10/05 07:59:37;;;;;;;19.85;19.15;;;13.20;99.90;;;;;;5100968;28;20237;-68
2023/10/05 08:02:04;;;;;;;20.45;19.75;;;13.30;99.90;;;;;;5095819;28;20227;-68
2023/10/05 08:04:33;;;;;;;21.52;20.75;;;13.40;99.90;;;;;;5094656;28;20703;-69
2023/10/05 08:06:59;;;;;;;18.73;18.13;;;13.40;99.90;;;;;;5110704;28;20217;-69
2023/10/05 08:09:27;;;;;;;18.50;17.90;;;13.50;99.90;;;;;;5102533;28;20300;-69
2023/10/05 08:11:56;;;;;;;16.63;16.03;;;13.60;99.90;;;;;;5107608;28;20256;-69
2023/10/05 08:14:24;;;;;;;15.37;14.87;;;13.70;99.90;;;;;;5101594;28;20637;-69
2023/10/05 08:16:51;;;;;;;17.50;16.90;;;13.90;99.90;;;;;;5117348;28;20426;-68
2023/10/05 08:19:19;;;;;;;16.33;15.73;;;13.90;99.90;;;;;;5116632;28;20521;-68
2023/10/05 08:21:47;;;;;;;16.52;15.98;;;14.00;99.90;;;;;;5111284;28;20198;-69
2023/10/05 08:24:17;;;;;;;15.02;14.52;;;14.10;99.90;;;;;;5096843;28;20248;-67
2023/10/05 08:26:44;;;;;;;14.93;14.43;;;14.10;99.90;;;;;;5100601;28;20202;-66
2023/10/05 08:29:11;;;;;;;13.98;13.48;;;14.30;99.90;;;;;;5128017;28;20277;-68
2023/10/05 08:31:38;;;;;;;12.85;12.38;;;14.20;99.90;;;;;;5131106;28;20282;-69
2023/10/05 08:34:08;;;;;;;12.53;12.13;;;14.20;99.90;;;;;;5124430;28;20213;-69
2023/10/05 08:36:35;;;;;;;12.63;11.93;;;14.30;99.90;;;;;;5131592;28;20221;-69
2023/10/05 08:39:08;;;;;;;12.50;12.07;;;14.40;99.90;;;;;;5131024;28;20690;-69
2023/10/05 08:41:36;;;;;;;12.83;12.33;;;14.40;99.90;;;;;;5135316;27;20204;-69
2023/10/05 08:44:10;;;;;;;12.25;11.85;;;14.30;99.90;;;;;;5135405;27;20205;-69
2023/10/05 08:46:42;;;;;;;12.55;12.15;;;14.50;99.90;;;;;;5135375;27;20213;-69
2023/10/05 08:49:10;;;;;;;12.90;12.40;;;14.70;99.90;;;;;;5135346;27;20238;-69
2023/10/05 08:51:39;;;;;;;12.60;12.20;;;14.70;99.90;;;;;;5129062;27;20649;-69
2023/10/05 08:54:11;;;;;;;12.30;11.90;;;14.80;99.90;;;;;;5135191;27;20236;-68
2023/10/05 08:56:40;;;;;;;13.60;13.10;;;15.00;99.90;;;;;;5135019;27;20211;-69
2023/10/05 08:59:13;;;;;;;13.63;13.13;;;15.00;99.90;;;;;;5127927;27;20209;-68
2023/10/05 09:01:42;;;;;;;14.07;13.57;;;15.20;99.90;;;;;;5134880;27;20292;-69
2023/10/05 09:04:23;;;;;;;14.82;14.32;;;15.30;99.90;;;;;;5133680;27;20209;-68
2023/10/05 09:06:52;;;;;;;14.35;13.85;;;15.50;99.90;;;;;;5133108;27;20209;-68
2023/10/05 09:09:37;;;;;;;13.43;12.97;;;15.60;99.90;;;;;;5134615;27;20300;-68
2023/10/05 09:12:18;;;;;;;14.38;13.88;;;15.60;99.90;;;;;;5127778;27;20233;-67
2023/10/05 09:14:46;;;;;;;14.10;13.60;;;15.60;99.90;;;;;;5134774;27;20209;-67
2023/10/05 09:17:15;;;;;;;13.52;13.02;;;15.70;99.90;;;;;;5134416;27;20590;-67
2023/10/05 09:19:44;;;;;;;14.40;13.90;;;15.60;99.90;;;;;;5135687;27;20213;-66
2023/10/05 09:22:12;;;;;;;14.27;13.68;;;15.50;99.90;;;;;;5134703;27;20257;-68
2023/10/05 09:24:43;;;;;;;15.18;14.57;;;15.50;99.90;;;;;;5134470;27;20296;-66
2023/10/05 09:27:17;;;;;;;15.15;14.65;;;15.30;99.90;;;;;;5134558;27;20577;-67
2023/10/05 09:29:45;;;;;;;14.77;14.27;;;15.30;99.90;;;;;;5134384;27;20308;-67
2023/10/05 09:32:25;;;;;;;14.70;14.20;;;15.50;99.90;;;;;;5134483;27;20224;-66
2023/10/05 09:34:56;;;;;;;13.75;13.25;;;15.60;99.90;;;;;;5134510;27;20818;-67
2023/10/05 09:37:25;;;;;;;14.50;14.00;;;15.70;99.90;;;;;;5134656;27;20258;-66
2023/10/05 09:39:59;;;;;;;13.87;13.37;;;15.80;99.90;;;;;;5134546;27;20220;-68
2023/10/05 09:42:27;;;;;;;13.37;12.87;;;15.80;99.90;;;;;;5132483;27;20228;-66
2023/10/05 09:44:57;;;;;;;15.00;14.37;;;15.80;99.90;;;;;;5134103;27;20675;-67
2023/10/05 09:47:26;;;;;;;14.80;14.30;;;15.90;99.90;;;;;;5138973;27;20680;-68
2023/10/05 09:49:55;;;;;;;13.07;12.68;;;15.80;99.90;;;;;;5128676;27;20275;-66
2023/10/05 09:52:24;;;;;;;13.60;13.10;;;15.90;99.90;;;;;;5131988;27;20241;-66
2023/10/05 09:54:51;;;;;;;13.13;12.63;;;15.90;99.90;;;;;;5128182;27;20618;-65
2023/10/05 09:57:21;;;;;;;13.47;12.97;;;16.10;99.90;;;;;;5132815;27;20295;-65
2023/10/05 09:59:58;;;;;;;12.80;12.30;;;16.30;99.90;;;;;;5134008;27;20208;-67
2023/10/05 10:02:32;;;;;;;13.27;12.77;;;16.80;99.90;;;;;;5133773;27;20235;-66
2023/10/05 10:05:00;;;;;;;12.40;11.95;;;16.70;99.90;;;;;;5133989;27;20630;-66
2023/10/05 10:07:32;;;;;;;12.50;12.10;;;16.70;99.90;;;;;;5133474;27;20217;-65
2023/10/05 10:10:00;;;;;;;12.57;12.17;;;16.70;99.90;;;;;;5133882;27;20205;-66
2023/10/05 10:12:33;;;;;;;12.18;11.77;;;16.80;99.90;;;;;;5133451;27;20233;-67
2023/10/05 10:15:01;;;;;;;12.90;12.50;;;16.80;99.90;;;;;;5122891;27;20210;-67
2023/10/05 10:17:32;;;;;;;13.00;12.55;;;16.80;99.90;;;;;;5123659;27;20213;-68
2023/10/05 10:20:17;;;;;;;12.93;12.50;;;16.80;99.90;;;;;;5138816;27;20237;-66
2023/10/05 10:23:00;;;;;;;13.32;12.85;;;17.00;99.90;;;;;;5140532;27;20225;-66
2023/10/05 10:25:31;;;;;;;12.38;11.98;;;17.20;99.90;;;;;;5144062;27;20209;-66
2023/10/05 10:28:39;;;;;;;12.50;12.00;;;17.20;99.90;;;;;;5135107;27;20233;-67
2023/10/05 10:31:17;;;;;;;13.57;13.07;;;17.30;99.90;;;;;;5133678;27;20288;-68
2023/10/05 10:33:50;;;;;;;11.83;11.43;;;17.30;99.90;;;;;;5142661;27;20221;-67
2023/10/05 10:36:21;;;;;;;12.27;11.75;;;17.40;99.90;;;;;;5126616;27;20209;-69
2023/10/05 10:38:50;;;;;;;12.57;12.13;;;17.40;99.90;;;;;;5133545;27;20237;-69
2023/10/05 10:41:18;;;;;;;12.00;11.60;;;17.30;99.90;;;;;;5133611;27;20695;-68
2023/10/05 10:43:49;;;;;;;12.10;11.68;;;17.20;99.90;;;;;;5133494;27;20236;-70
2023/10/05 10:46:28;;;;;;;12.57;12.07;;;17.10;99.90;;;;;;5131979;27;20213;-67
2023/10/05 10:49:00;;;;;;;13.52;13.02;;;16.90;99.90;;;;;;5129325;27;20205;-67
2023/10/05 10:51:31;;;;;;;13.05;12.55;;;16.90;99.90;;;;;;5125885;27;20702;-67
2023/10/05 10:53:59;;;;;;;12.90;12.40;;;17.00;99.90;;;;;;5113991;27;20255;-68
2023/10/05 10:56:34;;;;;;;12.85;12.35;;;17.10;99.90;;;;;;5124904;27;20583;-68
2023/10/05 10:59:11;;;;;;;12.57;12.10;;;17.00;99.90;;;;;;5123858;27;20980;-68
2023/10/05 11:01:44;;;;;;;12.50;12.00;;;17.10;99.90;;;;;;5129973;27;20261;-67
2023/10/05 11:04:23;;;;;;;12.13;11.70;;;17.20;99.90;;;;;;5128112;27;20205;-69
2023/10/05 11:06:59;;;;;;;12.30;11.85;;;17.40;99.90;;;;;;5129935;27;20208;-68
2023/10/05 11:09:35;;;;;;;12.63;12.17;;;17.60;99.90;;;;;;5126153;27;20201;-68
2023/10/05 11:12:12;;;;;;;13.27;12.77;;;17.70;99.90;;;;;;5125162;27;20239;-66
2023/10/05 11:14:43;;;;;;;13.63;13.13;;;17.80;99.90;;;;;;5129281;27;20215;-67
2023/10/05 11:17:30;;;;;;;15.03;14.53;;;17.90;99.90;;;;;;5122120;27;20201;-67
2023/10/05 11:20:10;;;;;;;13.05;12.55;;;17.70;99.90;;;;;;5128607;27;20254;-66
2023/10/05 11:22:42;;;;;;;14.30;13.80;;;17.50;99.90;;;;;;5128981;27;20983;-67
2023/10/05 11:25:15;;;;;;;14.00;13.50;;;17.50;99.90;;;;;;5122264;27;20560;-66
2023/10/05 11:27:54;;;;;;;13.73;13.23;;;17.60;99.90;;;;;;5129318;27;20637;-66
2023/10/05 11:30:26;;;;;;;13.35;12.85;;;17.90;99.90;;;;;;5127675;27;20224;-66
2023/10/05 11:32:56;;;;;;;13.45;12.95;;;18.00;99.90;;;;;;5122336;27;20340;-66
2023/10/05 11:35:40;;;;;;;13.83;13.33;;;18.20;99.90;;;;;;5126348;27;20301;-67
2023/10/05 11:38:07;;;;;;;14.00;13.50;;;18.30;99.90;;;;;;5128382;27;20236;-66
2023/10/05 11:40:41;;;;;;;13.80;13.30;;;18.20;99.90;;;;;;5129311;27;20418;-69
2023/10/05 11:43:13;;;;;;;13.35;12.85;;;18.30;99.90;;;;;;5137257;27;20221;-65
2023/10/05 11:45:55;;;;;;;14.07;13.57;;;18.30;99.90;;;;;;5130125;27;20212;-66
2023/10/05 11:48:32;;;;;;;13.80;13.30;;;18.40;99.90;;;;;;5125601;27;20197;-68
2023/10/05 11:50:59;;;;;;;14.13;13.63;;;18.50;99.90;;;;;;5129217;27;20796;-67
2023/10/05 11:53:26;;;;;;;14.03;13.53;;;18.50;99.90;;;;;;5128839;27;20231;-66
2023/10/05 11:55:55;;;;;;;13.50;13.00;;;18.60;99.90;;;;;;5128708;27;20205;-67
2023/10/05 11:58:22;;;;;;;13.40;12.90;;;18.70;99.90;;;;;;5125761;27;20682;-67
2023/10/05 12:00:51;;;;;;;13.57;13.07;;;18.70;99.90;;;;;;5119886;27;20264;-67
2023/10/05 12:03:18;;;;;;;13.70;13.20;;;18.70;99.90;;;;;;5125957;27;20237;-68
2023/10/05 12:05:44;;;;;;;13.82;13.32;;;18.80;99.90;;;;;;5111110;28;20293;-67
2023/10/05 12:08:12;;;;;;;14.18;13.68;;;18.80;99.90;;;;;;5097582;28;20237;-68
2023/10/05 12:10:40;;;;;;;13.57;13.07;;;18.80;99.90;;;;;;5123191;27;20209;-66
2023/10/05 12:13:07;;;;;;;13.40;12.90;;;18.90;99.90;;;;;;5131436;28;20239;-68
2023/10/05 12:15:36;;;;;;;13.50;13.00;;;19.00;99.90;;;;;;5130820;27;20713;-66
2023/10/05 12:18:12;;;;;;;13.63;13.13;;;19.00;99.90;;;;;;5130984;28;20605;-67
2023/10/05 12:20:41;;;;;;;14.15;13.65;;;19.00;99.90;;;;;;5131143;28;20612;-67
2023/10/05 12:23:10;;;;;;;14.17;13.67;;;19.00;99.90;;;;;;5130918;28;20714;-66
2023/10/05 12:25:37;;;;;;;13.75;13.25;;;18.90;99.90;;;;;;5130737;28;20685;-66
2023/10/05 12:28:05;;;;;;;14.40;13.88;;;18.90;99.90;;;;;;5130979;28;20215;-68
2023/10/05 12:30:32;;;;;;;14.33;13.83;;;18.80;99.90;;;;;;5131597;28;20209;-66
2023/10/05 12:32:58;;;;;;;14.40;13.90;;;18.90;99.90;;;;;;5130837;28;20599;-68
2023/10/05 12:35:29;;;;;;;13.93;13.43;;;18.80;99.90;;;;;;5124015;28;20659;-68
2023/10/05 12:37:58;;;;;;;13.73;13.23;;;18.80;99.90;;;;;;5130895;28;20659;-68
2023/10/05 12:40:33;;;;;;;13.52;13.02;;;18.80;99.90;;;;;;5130876;28;20228;-68
2023/10/05 12:43:00;;;;;;;13.70;13.20;;;18.80;99.90;;;;;;5131122;28;20304;-66